createdAt,value
2019-04-28T00:01:17.724Z,39.97
2019-04-28T00:03:47.121Z,39.10
2019-04-28T00:06:16.011Z,40.27
2019-04-28T00:08:45.316Z,39.53
2019-04-28T00:11:14.096Z,41.77
2019-04-28T00:13:42.994Z,39.60
2019-04-28T00:16:11.729Z,44.23
2019-04-28T00:18:41.578Z,44.33
2019-04-28T00:21:20.872Z,42.40
2019-04-28T00:24:07.951Z,43.40
2019-04-28T00:26:57.423Z,41.37
2019-04-28T00:29:37.714Z,41.60
2019-04-28T00:31:56.841Z,43.50
2019-04-28T00:34:26.147Z,48.30
2019-04-28T00:37:06.267Z,42.13
2019-04-28T00:39:35.288Z,41.97
2019-04-28T00:42:04.594Z,44.60
2019-04-28T00:44:33.690Z,40.67
2019-04-28T00:47:02.349Z,46.17
2019-04-28T00:49:46.432Z,47.23
2019-04-28T00:52:16.099Z,46.80
2019-04-28T00:54:45.520Z,43.67
2019-04-28T00:57:14.838Z,49.53
2019-04-28T00:59:54.171Z,48.57
2019-04-28T01:02:22.530Z,45.40
2019-04-28T01:04:51.559Z,50.30
2019-04-28T01:07:21.314Z,46.93
2019-04-28T01:09:51.664Z,47.70
2019-04-28T01:12:21.444Z,50.97
2019-04-28T01:14:52.266Z,48.60
2019-04-28T01:17:26.226Z,48.07
2019-04-28T01:19:56.771Z,50.90
2019-04-28T01:22:26.177Z,47.00
2019-04-28T01:24:55.072Z,50.43
2019-04-28T01:27:50.577Z,52.80
2019-04-28T01:30:54.412Z,53.60
2019-04-28T01:33:35.055Z,51.73
2019-04-28T01:36:04.161Z,50.03
2019-04-28T01:38:33.207Z,53.83
2019-04-28T01:41:01.840Z,47.13
2019-04-28T01:43:31.250Z,42.57
2019-04-28T01:46:00.336Z,46.40
2019-04-28T01:48:29.860Z,42.37
2019-04-28T01:50:59.850Z,39.60
2019-04-28T01:53:30.857Z,38.27
2019-04-28T01:55:59.798Z,38.47
2019-04-28T01:58:29.675Z,38.00
2019-04-28T02:00:59.569Z,35.53
2019-04-28T02:03:30.603Z,41.60
2019-04-28T02:06:00.199Z,39.00
2019-04-28T02:08:30.198Z,37.90
2019-04-28T02:11:00.103Z,32.20
2019-04-28T02:13:29.869Z,33.43
2019-04-28T02:16:00.039Z,31.53
2019-04-28T02:18:30.043Z,33.60
2019-04-28T02:21:06.291Z,30.23
2019-04-28T02:23:36.341Z,29.93
2019-04-28T02:26:05.228Z,31.07
2019-04-28T02:28:33.922Z,33.17
2019-04-28T02:31:03.214Z,29.37
2019-04-28T02:33:31.833Z,30.83
2019-04-28T02:36:01.597Z,30.27
2019-04-28T02:38:31.382Z,28.60
2019-04-28T02:41:01.237Z,35.47
2019-04-28T02:43:30.875Z,30.17
2019-04-28T02:46:00.668Z,29.40
2019-04-28T02:48:30.966Z,34.07
2019-04-28T02:51:05.788Z,35.40
2019-04-28T02:53:37.574Z,33.20
2019-04-28T02:56:06.443Z,38.20
2019-04-28T02:58:35.356Z,36.20
2019-04-28T03:01:12.846Z,33.13
2019-04-28T03:03:35.494Z,38.20
2019-04-28T03:06:04.279Z,39.07
2019-04-28T03:08:33.177Z,35.80
2019-04-28T03:11:02.222Z,35.67
2019-04-28T03:13:31.323Z,39.13
2019-04-28T03:16:01.745Z,37.93
2019-04-28T03:18:31.585Z,36.97
2019-04-28T03:21:01.669Z,38.10
2019-04-28T03:23:31.550Z,38.07
2019-04-28T03:26:14.740Z,37.80
2019-04-28T03:28:50.697Z,38.47
2019-04-28T03:32:07.207Z,37.83
2019-04-28T03:34:04.002Z,41.57
2019-04-28T03:36:33.467Z,37.13
2019-04-28T03:39:04.241Z,37.20
2019-04-28T03:41:33.282Z,38.10
2019-04-28T03:44:02.018Z,39.83
2019-04-28T03:46:32.422Z,39.00
2019-04-28T03:49:01.295Z,40.40
2019-04-28T03:51:30.993Z,39.40
2019-04-28T03:54:02.928Z,40.47
2019-04-28T03:56:31.155Z,41.10
2019-04-28T03:59:00.480Z,37.00
2019-04-28T04:01:30.559Z,36.10
2019-04-28T04:04:03.081Z,38.47
2019-04-28T04:06:31.122Z,36.87
2019-04-28T04:09:00.467Z,37.07
2019-04-28T04:11:43.543Z,36.33
2019-04-28T04:14:43.844Z,36.53
2019-04-28T04:17:17.412Z,36.13
2019-04-28T04:19:46.487Z,39.03
2019-04-28T04:22:15.477Z,37.87
2019-04-28T04:24:44.672Z,40.97
2019-04-28T04:27:13.317Z,41.60
2019-04-28T04:29:43.668Z,44.20
2019-04-28T04:32:22.851Z,39.83
2019-04-28T04:34:43.897Z,39.33
2019-04-28T04:37:12.873Z,39.40
2019-04-28T04:39:41.703Z,40.47
2019-04-28T04:42:10.701Z,40.43
2019-04-28T04:44:41.483Z,41.27
2019-04-28T04:47:10.895Z,47.93
2019-04-28T04:49:40.548Z,41.50
2019-04-28T04:52:10.471Z,44.07
2019-04-28T04:54:40.098Z,48.23
2019-04-28T04:57:11.021Z,48.70
2019-04-28T04:59:40.328Z,46.87
2019-04-28T05:02:33.117Z,42.57
2019-04-28T05:05:27.857Z,47.70
2019-04-28T05:07:56.867Z,47.30
2019-04-28T05:10:25.847Z,47.27
2019-04-28T05:12:55.149Z,45.60
2019-04-28T05:15:24.042Z,43.57
2019-04-28T05:17:52.927Z,40.97
2019-04-28T05:20:21.942Z,37.57
2019-04-28T05:22:57.753Z,37.93
2019-04-28T05:25:34.657Z,35.53
2019-04-28T05:28:03.547Z,34.30
2019-04-28T05:30:34.913Z,36.60
2019-04-28T05:33:03.175Z,33.27
2019-04-28T05:35:35.551Z,27.40
2019-04-28T05:38:03.312Z,31.03
2019-04-28T05:40:32.205Z,27.00
2019-04-28T05:43:01.376Z,25.23
2019-04-28T05:45:32.163Z,26.37
2019-04-28T05:48:01.765Z,25.43
2019-04-28T05:50:35.850Z,27.60
2019-04-28T05:53:32.489Z,21.77
2019-04-28T05:56:15.030Z,23.33
2019-04-28T05:58:53.176Z,28.50
2019-04-28T06:01:40.618Z,24.77
2019-04-28T06:04:11.104Z,24.23
2019-04-28T06:06:41.906Z,25.33
2019-04-28T06:09:16.331Z,23.77
2019-04-28T06:11:45.329Z,26.10
2019-04-28T06:14:13.950Z,25.47
2019-04-28T06:16:42.903Z,24.43
2019-04-28T06:19:11.815Z,24.50
2019-04-28T06:21:41.093Z,29.17
2019-04-28T06:24:09.751Z,24.77
2019-04-28T06:26:38.776Z,26.33
2019-04-28T06:29:07.664Z,26.80
2019-04-28T06:31:36.672Z,27.63
2019-04-28T06:34:05.363Z,26.13
2019-04-28T06:36:33.985Z,30.23
2019-04-28T06:39:04.258Z,28.57
2019-04-28T06:41:33.144Z,27.40
2019-04-28T06:44:02.449Z,28.53
2019-04-28T06:46:31.338Z,26.70
2019-04-28T06:49:00.227Z,30.73
2019-04-28T06:51:29.119Z,28.73
2019-04-28T06:53:58.031Z,29.03
2019-04-28T06:56:27.310Z,32.00
2019-04-28T06:58:59.339Z,29.90
2019-04-28T07:01:26.939Z,28.93
2019-04-28T07:03:56.137Z,31.77
2019-04-28T07:06:25.022Z,29.17
2019-04-28T07:08:54.318Z,24.30
2019-04-28T07:11:23.034Z,28.63
2019-04-28T07:13:51.798Z,31.17
2019-04-28T07:16:20.618Z,27.40
2019-04-28T07:18:49.585Z,28.60
2019-04-28T07:21:32.795Z,27.50
2019-04-28T07:24:01.932Z,27.40
2019-04-28T07:26:30.576Z,27.13
2019-04-28T07:28:59.793Z,27.23
2019-04-28T07:31:28.437Z,27.67
2019-04-28T07:33:57.483Z,25.63
2019-04-28T07:36:26.796Z,24.93
2019-04-28T07:38:55.772Z,23.43
2019-04-28T07:41:24.666Z,24.17
2019-04-28T07:43:53.763Z,23.90
2019-04-28T07:46:22.955Z,27.70
2019-04-28T07:48:52.520Z,24.20
2019-04-28T07:51:23.113Z,24.40
2019-04-28T07:53:56.287Z,25.20
2019-04-28T07:56:25.729Z,26.50
2019-04-28T07:58:54.361Z,24.67
2019-04-28T08:01:23.471Z,26.13
2019-04-28T08:03:52.083Z,25.77
2019-04-28T08:06:20.712Z,27.07
2019-04-28T08:08:49.945Z,27.37
2019-04-28T08:11:18.830Z,26.63
2019-04-28T08:13:47.463Z,26.00
2019-04-28T08:16:16.374Z,26.80
2019-04-28T08:18:45.302Z,26.83
2019-04-28T08:21:14.195Z,23.83
2019-04-28T08:23:47.406Z,21.10
2019-04-28T08:26:13.717Z,23.20
2019-04-28T08:28:42.714Z,22.43
2019-04-28T08:31:13.371Z,23.67
2019-04-28T08:34:01.375Z,24.40
2019-04-28T08:36:19.826Z,26.43
2019-04-28T08:38:48.721Z,24.00
2019-04-28T08:41:17.733Z,24.50
2019-04-28T08:43:46.439Z,27.07
2019-04-28T08:46:15.392Z,28.43
2019-04-28T08:48:44.055Z,29.53
2019-04-28T08:51:13.000Z,31.17
2019-04-28T08:53:41.862Z,26.40
2019-04-28T08:56:10.854Z,30.90
2019-04-28T08:58:39.748Z,33.33
2019-04-28T09:01:08.740Z,29.57
2019-04-28T09:03:38.042Z,33.97
2019-04-28T09:06:06.747Z,28.23
2019-04-28T09:08:35.682Z,28.20
2019-04-28T09:11:04.723Z,28.67
2019-04-28T09:13:33.716Z,28.80
2019-04-28T09:16:02.914Z,33.93
2019-04-28T09:18:31.639Z,31.43
2019-04-28T09:21:00.905Z,30.30
2019-04-28T09:23:30.199Z,35.53
2019-04-28T09:25:59.136Z,31.13
2019-04-28T09:28:28.188Z,29.10
2019-04-28T09:30:56.901Z,27.63
2019-04-28T09:33:25.867Z,28.10
2019-04-28T09:35:55.064Z,27.77
2019-04-28T09:38:23.686Z,28.43
2019-04-28T09:40:52.642Z,32.23
2019-04-28T09:43:29.229Z,27.87
2019-04-28T09:46:03.428Z,30.63
2019-04-28T09:48:32.317Z,31.10
2019-04-28T09:51:00.953Z,27.63
2019-04-28T09:53:29.897Z,30.00
2019-04-28T09:55:58.511Z,27.47
2019-04-28T09:58:27.787Z,28.93
2019-04-28T10:00:56.773Z,27.67
2019-04-28T10:03:25.739Z,28.20
2019-04-28T10:05:54.662Z,23.17
2019-04-28T10:08:23.302Z,23.80
2019-04-28T10:10:52.220Z,27.77
2019-04-28T10:13:21.131Z,27.47
2019-04-28T10:15:50.121Z,31.67
2019-04-28T10:18:19.039Z,29.17
2019-04-28T10:20:48.007Z,28.23
2019-04-28T10:23:17.314Z,24.97
2019-04-28T10:25:46.330Z,25.83
2019-04-28T10:28:15.873Z,26.33
2019-04-28T10:30:44.905Z,25.73
2019-04-28T10:33:13.567Z,24.90
2019-04-28T10:35:42.584Z,24.87
2019-04-28T10:38:11.498Z,21.67
2019-04-28T10:41:05.267Z,25.47
2019-04-28T10:43:34.556Z,23.27
2019-04-28T10:46:04.284Z,20.80
2019-04-28T10:48:33.277Z,24.53
2019-04-28T10:51:01.987Z,28.73
2019-04-28T10:53:30.937Z,23.83
2019-04-28T10:55:59.663Z,19.40
2019-04-28T10:58:28.310Z,19.70
2019-04-28T11:00:57.507Z,21.67
2019-04-28T11:03:26.396Z,19.93
2019-04-28T11:05:55.603Z,20.90
2019-04-28T11:08:37.301Z,19.20
2019-04-28T11:11:22.869Z,21.97
2019-04-28T11:13:51.871Z,20.33
2019-04-28T11:16:24.443Z,22.67
2019-04-28T11:18:53.747Z,21.63
2019-04-28T11:21:22.738Z,20.10
2019-04-28T11:23:52.346Z,19.87
2019-04-28T11:26:21.074Z,21.73
2019-04-28T11:28:50.032Z,21.27
2019-04-28T11:31:18.646Z,19.70
2019-04-28T11:33:55.635Z,23.57
2019-04-28T11:36:24.326Z,20.87
2019-04-28T11:38:53.594Z,23.33
2019-04-28T11:41:22.640Z,19.63
2019-04-28T11:43:51.565Z,22.40
2019-04-28T11:46:22.110Z,20.53
2019-04-28T11:48:51.092Z,26.73
2019-04-28T11:51:20.286Z,20.53
2019-04-28T11:53:49.179Z,19.30
2019-04-28T11:56:18.382Z,23.10
2019-04-28T11:58:46.990Z,19.93
2019-04-28T12:01:16.390Z,22.30
2019-04-28T12:03:45.666Z,21.20
2019-04-28T12:06:14.971Z,21.97
2019-04-28T12:08:44.164Z,22.17
2019-04-28T12:11:23.059Z,25.60
2019-04-28T12:14:23.115Z,23.60
2019-04-28T12:17:18.303Z,22.70
2019-04-28T12:19:52.978Z,20.13
2019-04-28T12:22:21.947Z,19.83
2019-04-28T12:24:50.839Z,23.20
2019-04-28T12:27:19.832Z,19.40
2019-04-28T12:29:49.021Z,21.70
2019-04-28T12:32:17.920Z,19.87
2019-04-28T12:34:46.897Z,24.67
2019-04-28T12:37:16.311Z,21.17
2019-04-28T12:39:45.302Z,16.50
2019-04-28T12:42:14.734Z,21.47
2019-04-28T12:44:43.449Z,18.73
2019-04-28T12:47:12.359Z,19.47
2019-04-28T12:49:53.237Z,16.43
2019-04-28T12:52:23.944Z,23.17
2019-04-28T12:54:53.427Z,24.10
2019-04-28T12:57:22.309Z,19.50
2019-04-28T12:59:56.420Z,17.83
2019-04-28T13:02:40.151Z,16.97
2019-04-28T13:05:12.835Z,19.17
2019-04-28T13:07:43.190Z,17.73
2019-04-28T13:10:12.153Z,14.93
2019-04-28T13:12:40.973Z,18.73
2019-04-28T13:15:10.046Z,19.23
2019-04-28T13:17:39.052Z,15.40
2019-04-28T13:20:08.237Z,14.87
2019-04-28T13:22:37.673Z,13.53
2019-04-28T13:25:07.203Z,17.77
2019-04-28T13:27:35.932Z,16.50
2019-04-28T13:30:05.451Z,13.80
2019-04-28T13:32:35.767Z,12.90
2019-04-28T13:35:04.630Z,11.57
2019-04-28T13:37:36.136Z,14.10
2019-04-28T13:40:11.339Z,11.03
2019-04-28T13:42:40.278Z,10.30
2019-04-28T13:45:14.558Z,7.17
2019-04-28T13:47:43.579Z,7.43
2019-04-28T13:50:17.250Z,9.33
2019-04-28T13:52:46.237Z,9.20
2019-04-28T13:55:33.678Z,10.67
2019-04-28T13:58:03.391Z,9.73
2019-04-28T14:00:41.665Z,14.17
2019-04-28T14:03:22.642Z,12.27
2019-04-28T14:05:56.384Z,12.70
2019-04-28T14:08:25.254Z,12.87
2019-04-28T14:10:54.210Z,12.60
2019-04-28T14:13:22.792Z,12.17
2019-04-28T14:15:51.526Z,15.20
2019-04-28T14:18:20.737Z,13.77
2019-04-28T14:20:49.423Z,10.60
2019-04-28T14:23:18.035Z,11.40
2019-04-28T14:25:46.674Z,12.30
2019-04-28T14:28:16.203Z,9.20
2019-04-28T14:30:45.173Z,11.50
2019-04-28T14:33:16.635Z,11.83
2019-04-28T14:35:45.119Z,12.43
2019-04-28T14:38:13.895Z,10.97
2019-04-28T14:40:43.103Z,11.40
2019-04-28T14:43:12.086Z,8.00
2019-04-28T14:45:40.717Z,11.80
2019-04-28T14:48:09.721Z,10.50
2019-04-28T14:50:38.939Z,10.30
2019-04-28T14:53:08.823Z,8.87
2019-04-28T14:55:37.780Z,12.73
2019-04-28T14:58:06.774Z,12.23
2019-04-28T15:00:40.610Z,12.37
2019-04-28T15:03:11.746Z,11.83
2019-04-28T15:05:53.496Z,11.77
2019-04-28T15:08:44.406Z,11.60
2019-04-28T15:11:32.474Z,17.40
2019-04-28T15:14:01.470Z,10.90
2019-04-28T15:16:30.334Z,9.83
2019-04-28T15:18:59.545Z,13.87
2019-04-28T15:21:28.268Z,10.43
2019-04-28T15:23:56.928Z,11.03
2019-04-28T15:26:26.244Z,11.77
2019-04-28T15:28:54.888Z,12.97
2019-04-28T15:31:24.105Z,10.00
2019-04-28T15:33:53.142Z,9.60
2019-04-28T15:36:22.399Z,10.50
2019-04-28T15:38:51.697Z,11.73
2019-04-28T15:41:22.099Z,7.83
2019-04-28T15:43:51.263Z,9.77
2019-04-28T15:46:20.221Z,9.00
2019-04-28T15:48:48.827Z,8.87
2019-04-28T15:51:17.805Z,11.47
2019-04-28T15:53:49.251Z,8.87
2019-04-28T15:56:29.680Z,14.17
2019-04-28T15:58:58.609Z,11.47
2019-04-28T16:01:27.802Z,11.23
2019-04-28T16:03:56.453Z,6.83
2019-04-28T16:06:25.376Z,10.30
2019-04-28T16:08:54.263Z,9.57
2019-04-28T16:11:22.992Z,9.40
2019-04-28T16:13:51.927Z,13.97
2019-04-28T16:16:20.528Z,8.80
2019-04-28T16:18:49.527Z,6.90
2019-04-28T16:21:18.246Z,7.73
2019-04-28T16:23:47.239Z,8.00
2019-04-28T16:26:16.202Z,9.03
2019-04-28T16:28:45.196Z,7.97
2019-04-28T16:31:14.748Z,7.13
2019-04-28T16:33:43.717Z,7.67
2019-04-28T16:36:12.999Z,6.67
2019-04-28T16:38:41.960Z,6.83
2019-04-28T16:41:10.611Z,6.87
2019-04-28T16:43:41.006Z,6.47
2019-04-28T16:46:09.994Z,8.27
2019-04-28T16:48:39.288Z,9.13
2019-04-28T16:51:07.916Z,6.70
2019-04-28T16:53:37.177Z,7.07
2019-04-28T16:56:20.715Z,6.40
2019-04-28T16:59:13.981Z,8.23
2019-04-28T17:01:58.494Z,6.83
2019-04-28T17:04:27.220Z,6.53
2019-04-28T17:06:55.822Z,7.00
2019-04-28T17:09:24.898Z,6.00
2019-04-28T17:11:53.896Z,7.33
2019-04-28T17:14:22.606Z,10.63
2019-04-28T17:16:51.339Z,6.63
2019-04-28T17:19:19.966Z,6.90
2019-04-28T17:21:49.259Z,7.93
2019-04-28T17:24:18.256Z,7.23
2019-04-28T17:26:47.297Z,8.57
2019-04-28T17:29:16.013Z,6.30
2019-04-28T17:31:44.922Z,5.93
2019-04-28T17:34:13.813Z,6.23
2019-04-28T17:36:42.684Z,5.97
2019-04-28T17:39:16.556Z,6.00
2019-04-28T17:41:45.613Z,6.17
2019-04-28T17:44:17.117Z,6.13
2019-04-28T17:46:45.641Z,6.33
2019-04-28T17:49:14.635Z,6.60
2019-04-28T17:51:43.937Z,7.53
2019-04-28T17:54:12.825Z,6.90
2019-04-28T17:56:41.546Z,6.60
2019-04-28T17:59:11.123Z,6.50
2019-04-28T18:02:01.997Z,6.70
2019-04-28T18:04:50.273Z,7.70
2019-04-28T18:07:24.285Z,8.37
2019-04-28T18:09:52.994Z,8.63
2019-04-28T18:12:21.790Z,7.67
2019-04-28T18:14:52.337Z,9.90
2019-04-28T18:17:39.101Z,8.53
2019-04-28T18:20:08.606Z,7.97
2019-04-28T18:22:37.598Z,8.63
2019-04-28T18:25:07.112Z,7.23
2019-04-28T18:27:36.494Z,7.80
2019-04-28T18:30:06.019Z,6.73
2019-04-28T18:33:09.425Z,7.30
2019-04-28T18:35:42.610Z,8.07
2019-04-28T18:38:19.711Z,9.50
2019-04-28T18:41:07.640Z,9.00
2019-04-28T18:44:00.896Z,10.03
2019-04-28T18:46:30.787Z,9.03
2019-04-28T18:48:59.384Z,7.93
2019-04-28T18:51:28.707Z,8.70
2019-04-28T18:53:57.993Z,8.20
2019-04-28T18:56:26.719Z,7.73
2019-04-28T18:58:55.983Z,8.20
2019-04-28T19:01:49.097Z,10.97
2019-04-28T19:04:18.972Z,13.87
2019-04-28T19:06:47.975Z,9.57
2019-04-28T19:09:27.047Z,9.60
2019-04-28T19:12:00.995Z,9.67
2019-04-28T19:14:37.519Z,10.63
2019-04-28T19:17:15.975Z,10.67
2019-04-28T19:19:44.905Z,11.97
2019-04-28T19:22:13.757Z,10.07
2019-04-28T19:24:42.463Z,9.43
2019-04-28T19:27:11.753Z,9.30
2019-04-28T19:29:40.639Z,10.53
2019-04-28T19:32:09.536Z,9.83
2019-04-28T19:34:39.174Z,10.83
2019-04-28T19:37:08.250Z,8.83
2019-04-28T19:39:36.862Z,9.70
2019-04-28T19:42:06.139Z,10.80
2019-04-28T19:44:35.611Z,10.93
2019-04-28T19:47:04.718Z,9.43
2019-04-28T19:49:33.714Z,9.47
2019-04-28T19:52:02.377Z,10.33
2019-04-28T19:54:34.778Z,9.97
2019-04-28T19:57:25.452Z,15.00
2019-04-28T20:00:12.288Z,10.33
2019-04-28T20:02:41.100Z,10.90
2019-04-28T20:05:10.170Z,10.73
2019-04-28T20:07:40.952Z,10.83
2019-04-28T20:10:09.489Z,10.60
2019-04-28T20:12:38.688Z,10.87
2019-04-28T20:15:08.195Z,12.93
2019-04-28T20:17:36.825Z,11.27
2019-04-28T20:20:05.950Z,11.63
2019-04-28T20:22:34.831Z,12.10
2019-04-28T20:25:03.829Z,12.20
2019-04-28T20:27:33.105Z,10.47
2019-04-28T20:30:01.692Z,11.17
2019-04-28T20:32:32.857Z,14.00
2019-04-28T20:35:01.792Z,10.10
2019-04-28T20:37:38.722Z,13.50
2019-04-28T20:40:12.368Z,13.57
2019-04-28T20:43:03.233Z,13.93
2019-04-28T20:45:32.474Z,10.97
2019-04-28T20:48:01.105Z,13.37
2019-04-28T20:50:30.055Z,15.37
2019-04-28T20:52:58.965Z,12.13
2019-04-28T20:55:27.988Z,13.77
2019-04-28T20:57:56.629Z,13.97
2019-04-28T21:00:25.618Z,11.30
2019-04-28T21:02:54.238Z,12.27
2019-04-28T21:05:23.217Z,11.30
2019-04-28T21:07:51.869Z,14.17
2019-04-28T21:10:20.769Z,10.63
2019-04-28T21:12:49.679Z,13.80
2019-04-28T21:15:18.975Z,12.40
2019-04-28T21:17:47.599Z,13.37
2019-04-28T21:20:16.530Z,12.93
2019-04-28T21:22:45.149Z,14.07
2019-04-28T21:25:14.223Z,15.60
2019-04-28T21:27:43.253Z,14.10
2019-04-28T21:30:12.825Z,14.20
2019-04-28T21:32:41.816Z,14.40
2019-04-28T21:35:10.811Z,17.17
2019-04-28T21:37:39.451Z,15.57
2019-04-28T21:40:09.517Z,15.67
2019-04-28T21:43:12.511Z,16.53
2019-04-28T21:45:57.477Z,18.57
2019-04-28T21:48:43.752Z,18.87
2019-04-28T21:51:12.671Z,14.63
2019-04-28T21:53:41.657Z,16.40
2019-04-28T21:56:10.344Z,16.67
2019-04-28T21:58:38.923Z,15.77
2019-04-28T22:01:09.257Z,14.93
2019-04-28T22:03:38.259Z,21.13
2019-04-28T22:06:06.944Z,13.20
2019-04-28T22:08:38.898Z,17.97
2019-04-28T22:11:07.896Z,14.03
2019-04-28T22:13:36.885Z,17.67
2019-04-28T22:16:05.969Z,17.70
2019-04-28T22:18:34.872Z,18.33
2019-04-28T22:21:03.498Z,15.30
2019-04-28T22:23:38.920Z,19.27
2019-04-28T22:26:09.414Z,17.67
2019-04-28T22:28:38.015Z,13.83
2019-04-28T22:31:07.008Z,16.70
2019-04-28T22:33:35.899Z,18.10
2019-04-28T22:36:04.905Z,18.27
2019-04-28T22:38:33.523Z,17.63
2019-04-28T22:41:02.780Z,17.37
2019-04-28T22:43:31.672Z,17.80
2019-04-28T22:46:00.598Z,17.53
2019-04-28T22:48:29.453Z,16.97
2019-04-28T22:50:58.449Z,14.93
2019-04-28T22:53:33.492Z,17.00
2019-04-28T22:56:27.975Z,17.50
2019-04-28T22:59:04.494Z,20.07
2019-04-28T23:01:36.866Z,19.87
2019-04-28T23:04:28.650Z,23.33
2019-04-28T23:06:57.841Z,21.57
2019-04-28T23:09:26.741Z,22.83
2019-04-28T23:11:55.631Z,23.20
2019-04-28T23:14:24.829Z,22.73
2019-04-28T23:16:53.740Z,24.90
2019-04-28T23:19:25.122Z,26.67
2019-04-28T23:22:06.106Z,26.60
2019-04-28T23:24:35.338Z,26.83
2019-04-28T23:27:04.452Z,26.20
2019-04-28T23:29:33.351Z,22.37
2019-04-28T23:32:02.331Z,27.20
2019-04-28T23:34:31.522Z,31.00
2019-04-28T23:37:00.517Z,27.20
2019-04-28T23:39:29.511Z,25.63
2019-04-28T23:42:08.809Z,26.90
2019-04-28T23:44:38.049Z,25.07
2019-04-28T23:47:07.714Z,24.97
2019-04-28T23:49:36.949Z,34.57
2019-04-28T23:52:31.136Z,33.17
2019-04-28T23:55:02.177Z,35.67
2019-04-28T23:57:31.478Z,34.67
